createdAt,value
2022-10-14T00:00:11.616Z,54.98
2022-10-14T00:02:40.158Z,54.98
2022-10-14T00:05:10.223Z,56.00
2022-10-14T00:07:40.205Z,54.85
2022-10-14T00:10:09.811Z,55.25
2022-10-14T00:12:39.209Z,54.03
2022-10-14T00:15:10.095Z,54.05
2022-10-14T00:17:39.658Z,53.85
2022-10-14T00:20:09.919Z,53.90
2022-10-14T00:22:39.268Z,56.65
2022-10-14T00:25:09.252Z,54.95
2022-10-14T00:27:38.782Z,54.93
2022-10-14T00:30:10.823Z,57.45
2022-10-14T00:32:40.089Z,57.58
2022-10-14T00:35:11.245Z,58.92
2022-10-14T00:37:40.882Z,57.08
2022-10-14T00:40:11.380Z,57.45
2022-10-14T00:42:40.728Z,58.40
2022-10-14T00:45:15.637Z,56.88
2022-10-14T00:47:45.478Z,57.58
2022-10-14T00:50:16.981Z,56.70
2022-10-14T00:52:46.870Z,57.85
2022-10-14T00:55:18.953Z,57.67
2022-10-14T00:57:48.557Z,57.98
2022-10-14T01:00:19.306Z,56.83
2022-10-14T01:02:48.984Z,58.55
2022-10-14T01:05:19.467Z,56.05
2022-10-14T01:08:07.246Z,57.03
2022-10-14T01:10:48.785Z,55.60
2022-10-14T01:13:27.478Z,56.15
2022-10-14T01:16:07.778Z,55.23
2022-10-14T01:18:46.037Z,55.52
2022-10-14T01:21:24.029Z,55.73
2022-10-14T01:23:56.649Z,55.38
2022-10-14T01:29:43.589Z,56.37
2022-10-14T01:32:41.416Z,56.85
2022-10-14T01:35:48.909Z,57.33
2022-10-14T01:38:36.483Z,56.13
2022-10-14T01:41:22.007Z,56.65
2022-10-14T01:43:53.210Z,58.13
2022-10-14T01:46:24.184Z,57.98
2022-10-14T01:48:59.484Z,60.12
2022-10-14T01:51:34.655Z,62.40
2022-10-14T01:54:06.435Z,61.13
2022-10-14T01:56:40.523Z,60.67
2022-10-14T01:59:10.707Z,59.50
2022-10-14T02:01:40.184Z,59.15
2022-10-14T02:04:18.512Z,57.08
2022-10-14T02:07:02.943Z,55.95
2022-10-14T02:09:42.063Z,57.03
2022-10-14T02:12:23.950Z,57.03
2022-10-14T02:14:56.708Z,54.90
2022-10-14T02:20:02.383Z,53.10
2022-10-14T02:22:35.044Z,53.60
2022-10-14T02:25:16.187Z,53.05
2022-10-14T02:27:47.132Z,53.52
2022-10-14T02:30:18.570Z,53.75
2022-10-14T02:32:51.036Z,51.90
2022-10-14T02:35:21.537Z,50.40
2022-10-14T02:37:51.600Z,51.55
2022-10-14T02:40:30.015Z,51.95
2022-10-14T02:42:59.510Z,52.15
2022-10-14T02:45:28.863Z,51.45
2022-10-14T02:47:58.267Z,50.70
2022-10-14T02:50:27.674Z,49.88
2022-10-14T02:52:56.922Z,49.30
2022-10-14T02:55:26.535Z,50.90
2022-10-14T02:57:56.141Z,50.05
2022-10-14T03:00:27.254Z,50.43
2022-10-14T03:02:57.377Z,49.77
2022-10-14T03:05:28.028Z,50.73
2022-10-14T03:07:57.369Z,51.28
2022-10-14T03:10:28.387Z,49.53
2022-10-14T03:12:58.341Z,48.48
2022-10-14T03:15:29.309Z,49.25
2022-10-14T03:17:59.009Z,48.35
2022-10-14T03:20:30.164Z,48.52
2022-10-14T03:22:59.983Z,46.95
2022-10-14T03:25:29.486Z,46.35
2022-10-14T03:28:00.470Z,44.40
2022-10-14T03:30:31.569Z,45.30
2022-10-14T03:33:02.941Z,44.03
2022-10-14T03:35:48.985Z,44.45
2022-10-14T03:38:19.935Z,45.08
2022-10-14T03:40:49.763Z,44.67
2022-10-14T03:43:19.469Z,45.48
2022-10-14T03:45:54.136Z,44.63
2022-10-14T03:48:25.137Z,43.70
2022-10-14T03:50:56.260Z,46.18
2022-10-14T03:53:26.139Z,46.50
2022-10-14T03:55:56.222Z,45.45
2022-10-14T03:58:26.749Z,44.90
2022-10-14T04:00:58.337Z,45.43
2022-10-14T04:03:29.279Z,45.70
2022-10-14T04:05:58.796Z,45.38
2022-10-14T04:08:29.414Z,44.98
2022-10-14T04:11:00.361Z,44.20
2022-10-14T04:13:31.507Z,42.17
2022-10-14T04:16:09.188Z,40.03
2022-10-14T04:18:40.232Z,38.50
2022-10-14T04:21:13.123Z,38.85
2022-10-14T04:23:44.379Z,38.83
2022-10-14T04:26:15.310Z,37.73
2022-10-14T04:28:46.469Z,38.38
2022-10-14T04:31:17.573Z,38.55
2022-10-14T04:33:51.640Z,39.18
2022-10-14T04:36:22.641Z,40.90
2022-10-14T04:38:51.953Z,40.25
2022-10-14T04:41:21.349Z,39.98
2022-10-14T04:43:51.160Z,41.45
2022-10-14T04:46:27.864Z,42.35
2022-10-14T04:48:57.484Z,42.27
2022-10-14T04:51:28.592Z,43.02
2022-10-14T04:54:02.483Z,40.75
2022-10-14T04:56:33.451Z,40.58
2022-10-14T04:59:04.238Z,40.90
2022-10-14T05:01:52.037Z,39.73
2022-10-14T05:04:22.658Z,39.55
2022-10-14T05:06:52.774Z,39.78
2022-10-14T05:09:22.113Z,39.05
2022-10-14T05:11:52.319Z,38.85
2022-10-14T05:14:23.933Z,39.78
2022-10-14T05:16:55.152Z,39.08
2022-10-14T05:19:26.185Z,38.88
2022-10-14T05:21:55.910Z,38.28
2022-10-14T05:24:29.811Z,36.85
2022-10-14T05:26:59.221Z,38.33
2022-10-14T05:29:30.249Z,38.48
2022-10-14T05:32:00.454Z,38.00
2022-10-14T05:34:35.949Z,38.28
2022-10-14T05:37:06.421Z,38.98
2022-10-14T05:39:37.408Z,37.15
2022-10-14T05:42:07.123Z,38.38
2022-10-14T05:44:36.495Z,38.78
2022-10-14T05:47:10.776Z,41.02
2022-10-14T05:49:41.045Z,39.38
2022-10-14T05:52:10.705Z,40.73
2022-10-14T05:54:40.499Z,43.10
2022-10-14T05:57:10.895Z,45.17
2022-10-14T05:59:40.754Z,44.42
2022-10-14T06:02:11.041Z,43.00
2022-10-14T06:04:42.059Z,44.45
2022-10-14T06:07:11.470Z,43.98
2022-10-14T06:09:41.042Z,46.18
2022-10-14T06:12:10.903Z,44.33
2022-10-14T06:14:40.213Z,45.28
2022-10-14T06:17:09.461Z,45.20
2022-10-14T06:19:39.318Z,45.33
2022-10-14T06:22:08.818Z,45.40
2022-10-14T06:24:38.124Z,45.23
2022-10-14T06:27:07.508Z,45.58
2022-10-14T06:29:38.743Z,45.12
2022-10-14T06:32:09.363Z,44.77
2022-10-14T06:34:38.799Z,45.60
2022-10-14T06:37:08.061Z,45.43
2022-10-14T06:39:37.866Z,46.73
2022-10-14T06:42:12.143Z,46.68
2022-10-14T06:44:38.350Z,46.88
2022-10-14T06:47:08.119Z,46.95
2022-10-14T06:49:37.464Z,45.92
2022-10-14T06:52:06.885Z,46.45
2022-10-14T06:54:39.191Z,45.88
2022-10-14T06:57:07.375Z,48.08
2022-10-14T06:59:38.434Z,45.43
2022-10-14T07:02:08.258Z,47.30
2022-10-14T07:04:37.769Z,45.85
2022-10-14T07:07:08.657Z,47.17
2022-10-14T07:09:37.905Z,46.85
2022-10-14T07:12:07.388Z,46.83
2022-10-14T07:14:36.659Z,44.33
2022-10-14T07:17:06.154Z,46.25
2022-10-14T07:19:35.615Z,44.85
2022-10-14T07:22:05.455Z,43.85
2022-10-14T07:24:35.046Z,42.90
2022-10-14T07:27:04.812Z,43.45
2022-10-14T07:29:34.770Z,43.02
2022-10-14T07:32:05.215Z,41.42
2022-10-14T07:34:34.571Z,41.75
2022-10-14T07:37:04.234Z,41.00
2022-10-14T07:39:34.043Z,42.13
2022-10-14T07:42:03.575Z,41.00
2022-10-14T07:44:32.875Z,41.33
2022-10-14T07:47:03.362Z,41.08
2022-10-14T07:49:32.758Z,41.45
2022-10-14T07:52:02.076Z,42.10
2022-10-14T07:54:32.747Z,41.85
2022-10-14T07:57:02.287Z,43.13
2022-10-14T07:59:31.566Z,41.95
2022-10-14T08:02:01.080Z,41.92
2022-10-14T08:04:30.353Z,42.03
2022-10-14T08:06:59.813Z,39.20
2022-10-14T08:09:30.045Z,39.55
2022-10-14T08:11:59.361Z,37.17
2022-10-14T08:14:28.646Z,36.73
2022-10-14T08:16:58.000Z,38.38
2022-10-14T08:19:27.531Z,36.35
2022-10-14T08:21:56.846Z,35.68
2022-10-14T08:24:26.157Z,35.25
2022-10-14T08:26:58.020Z,34.05
2022-10-14T08:29:27.492Z,33.78
2022-10-14T08:31:56.820Z,34.18
2022-10-14T08:34:26.699Z,33.78
2022-10-14T08:36:56.105Z,34.13
2022-10-14T08:39:25.668Z,34.00
2022-10-14T08:42:10.386Z,33.02
2022-10-14T08:44:55.349Z,32.60
2022-10-14T08:47:27.354Z,32.10
2022-10-14T08:50:02.380Z,31.35
2022-10-14T08:52:44.079Z,30.85
2022-10-14T08:55:25.350Z,30.90
2022-10-14T08:57:57.989Z,29.23
2022-10-14T09:02:56.035Z,27.13
2022-10-14T09:05:27.021Z,26.95
2022-10-14T09:07:57.917Z,26.60
2022-10-14T09:10:36.300Z,27.02
2022-10-14T09:13:26.126Z,26.20
2022-10-14T09:16:01.013Z,25.15
2022-10-14T09:18:54.917Z,26.07
2022-10-14T09:21:53.516Z,26.95
2022-10-14T09:24:29.256Z,24.40
2022-10-14T09:27:06.897Z,24.20
2022-10-14T09:30:01.878Z,23.90
2022-10-14T09:32:34.773Z,23.52
2022-10-14T09:37:37.695Z,21.65
2022-10-14T09:40:16.159Z,22.25
2022-10-14T09:43:11.134Z,20.68
2022-10-14T09:46:00.374Z,20.20
2022-10-14T09:48:48.994Z,20.10
2022-10-14T09:51:30.060Z,19.27
2022-10-14T09:54:02.616Z,18.87
2022-10-14T09:59:05.716Z,18.83
2022-10-14T10:01:42.570Z,17.10
2022-10-14T10:04:34.611Z,16.60
2022-10-14T10:07:10.230Z,17.67
2022-10-14T10:09:39.754Z,16.42
2022-10-14T10:12:27.335Z,15.85
2022-10-14T10:15:06.107Z,16.17
2022-10-14T10:17:36.986Z,15.72
2022-10-14T10:20:31.782Z,15.68
2022-10-14T10:23:20.886Z,16.27
2022-10-14T10:25:50.828Z,16.75
2022-10-14T10:28:27.037Z,17.70
2022-10-14T10:31:02.600Z,17.65
2022-10-14T10:33:50.426Z,18.32
2022-10-14T10:36:34.192Z,18.45
2022-10-14T10:39:18.963Z,18.32
2022-10-14T10:42:11.068Z,19.57
2022-10-14T10:45:18.199Z,19.90
2022-10-14T10:48:01.185Z,19.62
2022-10-14T10:50:48.995Z,20.00
2022-10-14T10:53:29.480Z,20.57
2022-10-14T10:56:10.790Z,19.42
2022-10-14T10:58:49.031Z,21.33
2022-10-14T11:01:21.917Z,20.25
2022-10-14T11:03:54.985Z,19.92
2022-10-14T11:07:03.708Z,19.98
2022-10-14T11:10:00.467Z,19.75
2022-10-14T11:12:35.774Z,18.87
2022-10-14T11:15:10.845Z,19.85
2022-10-14T11:17:48.902Z,20.17
2022-10-14T11:20:40.943Z,19.42
2022-10-14T11:23:31.620Z,19.17
2022-10-14T11:26:22.084Z,19.12
2022-10-14T11:28:54.724Z,19.48
2022-10-14T11:34:29.762Z,17.80
2022-10-14T11:37:15.461Z,17.48
2022-10-14T11:40:05.802Z,17.07
2022-10-14T11:42:43.986Z,16.45
2022-10-14T11:45:31.496Z,15.90
2022-10-14T11:48:15.847Z,16.17
2022-10-14T11:50:47.300Z,15.48
2022-10-14T11:53:22.109Z,15.03
2022-10-14T11:55:54.654Z,13.60
2022-10-14T11:58:26.899Z,13.08
2022-10-14T12:00:58.541Z,13.43
2022-10-14T12:04:04.794Z,14.33
2022-10-14T12:06:45.645Z,15.30
2022-10-14T12:09:23.991Z,16.87
2022-10-14T12:12:02.870Z,16.90
2022-10-14T12:14:50.208Z,17.87
2022-10-14T12:17:49.847Z,18.15
2022-10-14T12:20:40.543Z,19.10
2022-10-14T12:23:13.127Z,19.20
2022-10-14T12:28:14.654Z,18.80
2022-10-14T12:30:44.247Z,19.80
2022-10-14T12:33:22.297Z,19.12
2022-10-14T12:36:00.288Z,20.48
2022-10-14T12:38:33.019Z,20.60
2022-10-14T12:43:38.769Z,20.48
2022-10-14T12:46:14.302Z,20.10
2022-10-14T12:48:50.776Z,21.27
2022-10-14T12:51:23.152Z,20.25
2022-10-14T12:53:58.597Z,20.85
2022-10-14T12:56:42.970Z,21.60
2022-10-14T12:59:25.709Z,21.93
2022-10-14T13:02:04.872Z,23.18
2022-10-14T13:04:35.278Z,23.60
2022-10-14T13:07:45.797Z,22.02
2022-10-14T13:10:03.165Z,24.23
2022-10-14T13:12:39.467Z,23.38
2022-10-14T13:15:12.069Z,25.57
2022-10-14T13:20:38.181Z,25.40
2022-10-14T13:23:22.756Z,25.32
2022-10-14T13:25:53.873Z,26.52
2022-10-14T13:28:35.443Z,25.70
2022-10-14T13:33:43.569Z,23.40
2022-10-14T13:38:46.101Z,22.13
2022-10-14T13:41:21.248Z,22.35
2022-10-14T13:43:53.049Z,21.05
2022-10-14T13:46:28.046Z,22.70
2022-10-14T13:49:00.164Z,22.60
2022-10-14T13:51:50.859Z,21.55
2022-10-14T13:54:25.130Z,19.77
2022-10-14T13:59:43.910Z,19.95
2022-10-14T14:02:04.939Z,17.98
2022-10-14T14:04:35.971Z,20.43
2022-10-14T14:07:35.193Z,19.92
2022-10-14T14:09:38.202Z,16.93
2022-10-14T14:12:07.990Z,16.87
2022-10-14T14:14:39.170Z,17.55
2022-10-14T14:17:17.703Z,15.83
2022-10-14T14:19:50.633Z,14.28
2022-10-14T14:22:26.672Z,11.50
2022-10-14T14:25:33.982Z,11.93
2022-10-14T14:27:53.279Z,11.33
2022-10-14T14:30:34.072Z,10.90
2022-10-14T14:33:07.897Z,11.10
2022-10-14T14:38:06.022Z,12.30
2022-10-14T14:40:35.560Z,13.03
2022-10-14T14:43:05.785Z,13.68
2022-10-14T14:45:38.262Z,13.30
2022-10-14T14:48:08.817Z,12.50
2022-10-14T14:50:42.601Z,12.13
2022-10-14T14:53:26.764Z,11.25
2022-10-14T14:56:00.308Z,11.30
2022-10-14T14:58:35.616Z,11.45
2022-10-14T15:01:07.797Z,10.32
2022-10-14T15:04:13.101Z,10.00
2022-10-14T15:06:31.401Z,9.85
2022-10-14T15:09:05.380Z,9.40
2022-10-14T15:11:34.766Z,8.68
2022-10-14T15:14:05.040Z,7.60
2022-10-14T15:16:42.909Z,7.15
2022-10-14T15:19:23.268Z,7.67
2022-10-14T15:22:29.550Z,7.83
2022-10-14T15:25:12.253Z,6.78
2022-10-14T15:27:50.342Z,8.05
2022-10-14T15:30:30.615Z,8.08
2022-10-14T15:33:05.449Z,10.00
2022-10-14T15:35:35.673Z,10.80
2022-10-14T15:38:12.540Z,9.18
2022-10-14T15:40:41.142Z,9.33
2022-10-14T15:43:17.678Z,10.20
2022-10-14T15:45:55.328Z,10.80
2022-10-14T15:48:24.696Z,11.22
2022-10-14T15:50:54.205Z,11.57
2022-10-14T15:53:25.513Z,10.98
2022-10-14T15:55:54.896Z,11.65
2022-10-14T15:58:24.374Z,10.30
2022-10-14T16:00:53.989Z,9.90
2022-10-14T16:03:23.369Z,10.63
2022-10-14T16:05:52.688Z,12.05
2022-10-14T16:08:22.316Z,13.15
2022-10-14T16:10:53.320Z,10.88
2022-10-14T16:13:22.565Z,12.28
2022-10-14T16:16:00.381Z,14.20
2022-10-14T16:18:29.823Z,15.28
2022-10-14T16:20:59.441Z,14.87
2022-10-14T16:23:33.382Z,15.90
2022-10-14T16:26:02.363Z,15.53
2022-10-14T16:28:31.833Z,15.70
2022-10-14T16:31:01.241Z,16.17
2022-10-14T16:33:30.702Z,16.23
2022-10-14T16:36:02.300Z,15.80
2022-10-14T16:38:31.692Z,17.98
2022-10-14T16:41:02.828Z,17.90
2022-10-14T16:43:32.141Z,17.95
2022-10-14T16:46:03.735Z,22.32
2022-10-14T16:48:34.690Z,22.10
2022-10-14T16:51:04.759Z,22.22
2022-10-14T16:53:45.180Z,22.42
2022-10-14T16:56:35.885Z,27.17
2022-10-14T16:59:07.626Z,30.57
2022-10-14T17:01:37.054Z,33.90
2022-10-14T17:04:08.888Z,30.90
2022-10-14T17:06:38.330Z,26.82
2022-10-14T17:09:08.146Z,42.50
2022-10-14T17:11:37.684Z,27.02
2022-10-14T17:14:06.992Z,31.05
2022-10-14T17:16:36.476Z,29.55
2022-10-14T17:19:05.751Z,29.82
2022-10-14T17:21:35.300Z,33.33
2022-10-14T17:24:05.017Z,34.25
2022-10-14T17:26:35.063Z,31.52
2022-10-14T17:29:04.496Z,33.08
2022-10-14T17:31:34.360Z,30.02
2022-10-14T17:34:04.072Z,28.25
2022-10-14T17:36:33.479Z,30.57
2022-10-14T17:39:03.078Z,30.45
2022-10-14T17:41:33.010Z,29.82
2022-10-14T17:44:02.347Z,31.65
2022-10-14T17:46:32.134Z,30.62
2022-10-14T17:49:03.998Z,29.12
2022-10-14T17:51:33.910Z,29.98
2022-10-14T17:54:08.471Z,30.40
2022-10-14T17:56:38.775Z,31.57
2022-10-14T17:59:11.213Z,31.00
2022-10-14T18:02:00.848Z,33.13
2022-10-14T18:04:11.744Z,32.73
2022-10-14T18:06:43.259Z,38.70
2022-10-14T18:09:13.079Z,39.67
2022-10-14T18:14:14.664Z,42.62
2022-10-14T18:16:44.024Z,42.55
2022-10-14T18:19:17.325Z,42.65
2022-10-14T18:21:46.669Z,81.75
2022-10-14T18:24:16.084Z,58.50
2022-10-14T18:26:45.469Z,55.55
2022-10-14T18:29:14.796Z,58.25
2022-10-14T18:31:44.188Z,51.77
2022-10-14T18:34:14.223Z,51.68
2022-10-14T18:36:43.569Z,49.95
2022-10-14T18:39:13.633Z,45.15
2022-10-14T18:41:43.964Z,45.15
2022-10-14T18:44:13.295Z,46.92
2022-10-14T18:46:42.690Z,44.80
2022-10-14T18:49:12.733Z,42.70
2022-10-14T18:51:43.433Z,66.07
2022-10-14T18:54:15.958Z,78.78
2022-10-14T18:56:45.874Z,51.95
2022-10-14T18:59:18.029Z,55.43
2022-10-14T19:01:50.371Z,37.98
2022-10-14T19:04:21.400Z,40.67
2022-10-14T19:06:50.898Z,50.60
2022-10-14T19:09:23.216Z,60.88
2022-10-14T19:11:53.374Z,58.48
2022-10-14T19:14:22.879Z,59.70
2022-10-14T19:16:52.428Z,73.92
2022-10-14T19:19:22.048Z,88.95
2022-10-14T19:21:53.602Z,92.97
2022-10-14T19:24:23.025Z,66.67
2022-10-14T19:26:54.359Z,65.28
2022-10-14T19:29:23.720Z,48.38
2022-10-14T19:31:54.680Z,59.20
2022-10-14T19:34:27.041Z,57.30
2022-10-14T19:36:55.372Z,54.50
2022-10-14T19:39:24.687Z,51.35
2022-10-14T19:41:54.437Z,47.05
2022-10-14T19:44:23.883Z,47.83
2022-10-14T19:46:53.221Z,50.05
2022-10-14T19:49:22.757Z,49.15
2022-10-14T19:51:52.241Z,53.73
2022-10-14T19:54:21.719Z,54.33
2022-10-14T19:56:51.187Z,55.55
2022-10-14T19:59:20.855Z,58.10
2022-10-14T20:01:50.740Z,48.95
2022-10-14T20:04:23.906Z,48.48
2022-10-14T20:06:53.310Z,52.75
2022-10-14T20:09:22.633Z,48.45
2022-10-14T20:11:53.154Z,48.17
2022-10-14T20:14:22.512Z,48.00
2022-10-14T20:16:53.713Z,47.93
2022-10-14T20:19:22.961Z,50.12
2022-10-14T20:21:52.275Z,54.70
2022-10-14T20:24:21.654Z,43.15
2022-10-14T20:26:51.033Z,43.70
2022-10-14T20:29:20.470Z,56.10
2022-10-14T20:31:49.861Z,55.48
2022-10-14T20:34:19.319Z,50.85
2022-10-14T20:36:48.655Z,55.78
2022-10-14T20:39:18.089Z,64.00
2022-10-14T20:41:47.325Z,63.50
2022-10-14T20:44:21.615Z,93.52
2022-10-14T20:46:48.238Z,63.17
2022-10-14T20:49:17.519Z,57.15
2022-10-14T20:51:46.757Z,56.25
2022-10-14T20:54:16.051Z,52.08
2022-10-14T20:56:45.433Z,48.90
2022-10-14T20:59:14.876Z,53.13
2022-10-14T21:01:44.255Z,83.95
2022-10-14T21:04:13.584Z,55.50
2022-10-14T21:06:42.889Z,66.28
2022-10-14T21:09:12.228Z,79.90
2022-10-14T21:11:43.247Z,55.85
2022-10-14T21:14:12.801Z,55.05
2022-10-14T21:16:42.238Z,49.40
2022-10-14T21:19:12.457Z,54.15
2022-10-14T21:21:45.521Z,48.02
2022-10-14T21:24:17.404Z,46.65
2022-10-14T21:26:49.104Z,54.88
2022-10-14T21:29:19.241Z,55.50
2022-10-14T21:31:49.508Z,48.60
2022-10-14T21:34:18.881Z,49.73
2022-10-14T21:36:48.284Z,51.88
2022-10-14T21:39:18.534Z,50.70
2022-10-14T21:41:48.133Z,47.80
2022-10-14T21:44:19.813Z,52.53
2022-10-14T21:46:49.990Z,53.23
2022-10-14T21:49:19.227Z,51.60
2022-10-14T21:51:48.600Z,50.65
2022-10-14T21:54:17.996Z,49.20
2022-10-14T21:56:47.308Z,49.48
2022-10-14T21:59:17.359Z,49.42
2022-10-14T22:01:46.707Z,49.10
2022-10-14T22:04:16.175Z,49.85
2022-10-14T22:06:45.674Z,48.42
2022-10-14T22:09:15.002Z,47.67
2022-10-14T22:11:44.317Z,48.92
2022-10-14T22:14:17.438Z,48.92
2022-10-14T22:16:47.957Z,48.98
2022-10-14T22:19:17.277Z,49.53
2022-10-14T22:21:50.252Z,49.88
2022-10-14T22:24:19.526Z,54.10
2022-10-14T22:26:51.842Z,55.55
2022-10-14T22:29:21.525Z,54.18
2022-10-14T22:31:50.764Z,52.60
2022-10-14T22:34:20.100Z,52.05
2022-10-14T22:36:49.396Z,51.68
2022-10-14T22:39:19.181Z,51.45
2022-10-14T22:41:48.984Z,53.30
2022-10-14T22:44:18.427Z,50.63
2022-10-14T22:46:47.676Z,52.10
2022-10-14T22:49:17.478Z,50.78
2022-10-14T22:51:46.837Z,52.67
2022-10-14T22:54:16.119Z,52.23
2022-10-14T22:56:45.564Z,52.80
2022-10-14T22:59:14.942Z,53.13
2022-10-14T23:01:44.739Z,54.20
2022-10-14T23:04:14.069Z,53.63
2022-10-14T23:06:45.213Z,54.15
2022-10-14T23:09:14.536Z,54.33
2022-10-14T23:11:44.041Z,54.40
2022-10-14T23:14:13.284Z,55.88
2022-10-14T23:16:42.615Z,55.95
2022-10-14T23:19:11.937Z,56.55
2022-10-14T23:21:41.540Z,57.78
2022-10-14T23:24:12.458Z,57.45
2022-10-14T23:26:41.824Z,58.40
2022-10-14T23:29:12.418Z,58.08
2022-10-14T23:31:42.314Z,58.75
2022-10-14T23:34:15.272Z,59.50
2022-10-14T23:36:44.701Z,59.30
2022-10-14T23:39:14.328Z,59.73
2022-10-14T23:41:43.682Z,58.83
2022-10-14T23:44:13.267Z,58.92
2022-10-14T23:46:43.055Z,59.77
2022-10-14T23:49:25.644Z,58.52
2022-10-14T23:51:43.796Z,58.23
2022-10-14T23:54:13.037Z,57.25
2022-10-14T23:56:42.399Z,58.20
2022-10-14T23:59:12.311Z,57.43
